Time;durP1;ratioP1;P1;durP2;ratioP2;P2;SDS_P1;SDS_P2;PMS_P1;PMS_P2;Temp;Humidity;BMP_temperature;BMP_pressure;BME280_temperature;BME280_humidity;BME280_pressure;Samples;Min_cycle;Max_cycle;Signal;HPM_P1;HPM_P2
2024/02/27 00:02:05;;;;;;;1.87;1.30;;;9.00;99.90;;;;;;5134267;27;20262;-44
2024/02/27 00:04:30;;;;;;;2.63;1.50;;;9.00;1.00;;;;;;5137823;27;20508;-45
2024/02/27 00:06:56;;;;;;;1.93;1.53;;;8.90;1.00;;;;;;5138121;27;20262;-45
2024/02/27 00:09:22;;;;;;;1.87;1.07;;;8.90;1.00;;;;;;5137644;27;20415;-44
2024/02/27 00:11:48;;;;;;;1.83;1.17;;;8.90;1.00;;;;;;5137394;27;20297;-46
2024/02/27 00:14:14;;;;;;;1.80;1.37;;;8.90;68.70;;;;;;5137632;27;20775;-46
2024/02/27 00:16:40;;;;;;;1.20;0.90;;;8.90;99.90;;;;;;5137865;27;20431;-44
2024/02/27 00:19:06;;;;;;;1.67;1.10;;;8.80;99.90;;;;;;5139175;27;20425;-43
2024/02/27 00:21:32;;;;;;;1.30;1.00;;;8.90;77.40;;;;;;5138261;27;20172;-47
2024/02/27 00:23:57;;;;;;;1.60;1.10;;;8.90;41.40;;;;;;5137689;27;20818;-45
2024/02/27 00:26:23;;;;;;;1.57;1.10;;;8.90;15.10;;;;;;5138106;27;20187;-46
2024/02/27 00:28:49;;;;;;;1.60;1.00;;;8.90;45.50;;;;;;5137034;27;20239;-46
2024/02/27 00:31:15;;;;;;;1.27;1.07;;;8.90;22.00;;;;;;5119471;27;20442;-44
2024/02/27 00:33:41;;;;;;;1.93;1.20;;;8.90;10.80;;;;;;5137549;27;20207;-46
2024/02/27 00:36:06;;;;;;;1.27;1.10;;;8.90;28.80;;;;;;5135003;27;20671;-46
2024/02/27 00:38:32;;;;;;;1.63;0.90;;;8.90;26.90;;;;;;5136105;27;20419;-47
2024/02/27 00:40:58;;;;;;;1.40;1.10;;;8.90;55.90;;;;;;5136227;27;20507;-46
2024/02/27 00:43:23;;;;;;;1.90;0.80;;;8.90;99.90;;;;;;5137076;27;20271;-45
2024/02/27 00:45:49;;;;;;;2.00;1.00;;;8.90;99.90;;;;;;5117122;27;20564;-45
2024/02/27 00:48:15;;;;;;;3.73;1.00;;;8.90;99.90;;;;;;5116602;27;20171;-45
2024/02/27 00:50:40;;;;;;;1.20;0.90;;;8.90;99.90;;;;;;5135217;27;20213;-46
2024/02/27 00:53:07;;;;;;;1.10;0.90;;;8.90;99.90;;;;;;5135500;27;20210;-43
2024/02/27 00:55:33;;;;;;;1.10;0.90;;;8.90;99.90;;;;;;5135895;27;20433;-43
2024/02/27 00:57:58;;;;;;;1.77;1.00;;;9.00;99.90;;;;;;5137290;27;20470;-44
2024/02/27 01:00:24;;;;;;;1.20;0.97;;;8.90;99.90;;;;;;5136993;27;20167;-44
2024/02/27 01:02:49;;;;;;;2.00;1.20;;;8.90;99.90;;;;;;5130255;27;20242;-48
2024/02/27 01:05:15;;;;;;;1.50;1.10;;;9.00;99.90;;;;;;5138521;27;20198;-44
2024/02/27 01:07:42;;;;;;;2.10;1.23;;;9.00;99.90;;;;;;5139255;27;20201;-45
2024/02/27 01:10:08;;;;;;;1.97;1.20;;;9.00;1.00;;;;;;5136982;27;20513;-48
2024/02/27 01:12:34;;;;;;;2.10;1.30;;;9.00;1.00;;;;;;5137442;27;20456;-44
2024/02/27 01:14:59;;;;;;;1.73;1.00;;;9.00;1.00;;;;;;5137435;27;20487;-44
2024/02/27 01:17:25;;;;;;;1.30;0.83;;;9.00;1.00;;;;;;5137361;27;20180;-43
2024/02/27 01:19:51;;;;;;;1.83;1.10;;;8.90;1.00;;;;;;5118694;27;20537;-44
2024/02/27 01:22:31;;;;;;;2.00;1.13;;;8.90;1.00;;;;;;5136945;27;20170;-48
2024/02/27 01:24:57;;;;;;;1.20;1.00;;;8.90;1.00;;;;;;5132869;27;20668;-44
2024/02/27 01:27:23;;;;;;;1.90;1.10;;;8.90;1.00;;;;;;5116343;27;20473;-45
2024/02/27 01:29:53;;;;;;;1.60;0.93;;;8.80;1.00;;;;;;5138245;27;20403;-45
2024/02/27 01:32:19;;;;;;;1.80;1.00;;;8.80;1.00;;;;;;5119407;27;20474;-42
2024/02/27 01:34:45;;;;;;;1.60;1.23;;;8.80;5.60;;;;;;5119145;27;20515;-43
2024/02/27 01:37:11;;;;;;;1.97;1.17;;;8.80;16.80;;;;;;5138140;27;20425;-45
2024/02/27 01:39:37;;;;;;;1.37;1.00;;;8.80;27.00;;;;;;5137895;27;20440;-46
2024/02/27 01:42:03;;;;;;;2.63;1.13;;;8.80;78.20;;;;;;5136601;27;20660;-45
2024/02/27 01:44:29;;;;;;;1.73;1.13;;;8.70;99.90;;;;;;5136740;27;20421;-44
2024/02/27 01:46:56;;;;;;;1.43;0.90;;;8.70;99.90;;;;;;5134934;27;20848;-43
2024/02/27 01:49:21;;;;;;;1.23;0.97;;;8.60;99.90;;;;;;5118124;27;20553;-43
2024/02/27 01:51:48;;;;;;;1.37;1.07;;;8.60;99.90;;;;;;5136154;27;20527;-43
2024/02/27 01:54:17;;;;;;;1.30;0.90;;;8.50;99.90;;;;;;5117766;27;20429;-45
2024/02/27 01:56:45;;;;;;;1.53;0.90;;;8.50;99.90;;;;;;5119539;27;20904;-42
2024/02/27 01:59:12;;;;;;;1.57;0.90;;;8.50;99.90;;;;;;5137288;27;20501;-42
2024/02/27 02:01:39;;;;;;;1.50;1.40;;;8.50;99.90;;;;;;5128060;27;20425;-44
2024/02/27 02:04:07;;;;;;;3.63;1.07;;;8.50;99.90;;;;;;5137691;27;20797;-46
2024/02/27 02:06:33;;;;;;;2.00;1.00;;;8.50;1.00;;;;;;5137617;27;20825;-47
2024/02/27 02:08:59;;;;;;;1.33;1.10;;;8.40;1.00;;;;;;5137518;27;20419;-43
2024/02/27 02:11:25;;;;;;;3.20;1.23;;;8.40;1.00;;;;;;5135228;27;20420;-47
2024/02/27 02:13:50;;;;;;;2.30;1.13;;;8.30;1.00;;;;;;5116756;27;20920;-44
2024/02/27 02:16:16;;;;;;;1.67;1.20;;;8.30;1.00;;;;;;5116674;27;20179;-45
2024/02/27 02:18:42;;;;;;;2.00;1.50;;;8.30;1.00;;;;;;5135834;27;20171;-45
2024/02/27 02:21:07;;;;;;;1.30;1.20;;;8.20;1.00;;;;;;5136616;27;20295;-43
2024/02/27 02:23:33;;;;;;;1.73;1.10;;;8.20;1.00;;;;;;5118369;27;20193;-45
2024/02/27 02:25:59;;;;;;;2.17;1.97;;;8.20;1.00;;;;;;5136202;27;20179;-43
2024/02/27 02:28:26;;;;;;;2.30;1.57;;;8.10;23.00;;;;;;5118354;27;20638;-44
2024/02/27 02:30:51;;;;;;;2.03;1.60;;;8.10;45.30;;;;;;5118643;27;20528;-44
2024/02/27 02:33:17;;;;;;;1.90;1.57;;;8.10;60.70;;;;;;5137117;27;20538;-45
2024/02/27 02:35:44;;;;;;;2.20;1.73;;;8.10;57.40;;;;;;5100063;27;20191;-43
2024/02/27 02:38:09;;;;;;;1.67;1.57;;;8.10;65.20;;;;;;5135551;27;20171;-43
2024/02/27 02:40:35;;;;;;;2.40;2.10;;;8.10;79.80;;;;;;5136354;27;20451;-44
2024/02/27 02:43:01;;;;;;;1.77;1.50;;;8.10;85.00;;;;;;5136906;27;20256;-45
2024/02/27 02:45:27;;;;;;;2.63;2.03;;;8.10;99.90;;;;;;5118238;27;20243;-44
2024/02/27 02:47:53;;;;;;;2.60;1.90;;;8.10;99.90;;;;;;5137276;27;20253;-43
2024/02/27 02:50:18;;;;;;;2.40;2.20;;;8.00;99.90;;;;;;5137196;27;20463;-46
2024/02/27 02:52:44;;;;;;;1.60;1.40;;;8.00;99.90;;;;;;5137051;27;20289;-46
2024/02/27 02:55:10;;;;;;;2.60;2.40;;;8.00;99.90;;;;;;5137500;27;20209;-46
2024/02/27 02:57:36;;;;;;;4.00;3.33;;;8.00;99.90;;;;;;5137318;27;20182;-48
2024/02/27 03:00:04;;;;;;;4.50;3.37;;;8.10;99.90;;;;;;5137398;27;20174;-47
2024/02/27 03:02:30;;;;;;;2.93;2.63;;;8.10;99.90;;;;;;5136575;27;20205;-46
2024/02/27 03:04:57;;;;;;;5.10;2.90;;;8.10;99.90;;;;;;5136990;27;20605;-44
2024/02/27 03:07:22;;;;;;;3.07;2.57;;;8.00;99.90;;;;;;5118658;28;20831;-48
2024/02/27 03:13:10;;;;;;;6.43;3.53;;;8.00;99.90;;;;;;5136143;27;20257;-47
2024/02/27 03:15:35;;;;;;;5.50;3.73;;;7.90;99.90;;;;;;5134776;27;20501;-47
2024/02/27 03:18:01;;;;;;;5.60;4.70;;;7.90;99.90;;;;;;5135472;28;20175;-44
2024/02/27 03:20:27;;;;;;;4.50;4.10;;;7.90;99.90;;;;;;5135755;28;20182;-46
2024/02/27 03:22:52;;;;;;;4.20;3.80;;;7.90;99.90;;;;;;5133545;28;20568;-44
2024/02/27 03:25:18;;;;;;;5.27;4.23;;;7.90;99.90;;;;;;5135390;28;20190;-45
2024/02/27 03:27:44;;;;;;;4.97;4.10;;;7.90;99.90;;;;;;5133085;28;20244;-45
2024/02/27 03:30:13;;;;;;;4.17;3.77;;;7.80;99.90;;;;;;5132907;28;20182;-46
2024/02/27 03:32:38;;;;;;;5.53;4.87;;;7.70;99.90;;;;;;5134408;28;20464;-46
2024/02/27 03:35:04;;;;;;;7.13;4.77;;;7.70;99.90;;;;;;5134133;28;20429;-47
2024/02/27 03:37:30;;;;;;;6.30;5.03;;;7.70;99.90;;;;;;5136533;27;20422;-48
2024/02/27 03:39:55;;;;;;;5.20;4.70;;;7.70;99.90;;;;;;5135259;27;20429;-44
2024/02/27 03:42:21;;;;;;;5.83;4.50;;;7.70;99.90;;;;;;5135769;27;20223;-42
2024/02/27 03:44:47;;;;;;;6.50;4.93;;;7.80;99.90;;;;;;5138984;27;20437;-43
2024/02/27 03:47:14;;;;;;;6.40;5.80;;;7.70;99.90;;;;;;5138742;27;20234;-46
2024/02/27 03:49:39;;;;;;;4.97;4.27;;;7.70;99.90;;;;;;5137567;27;20171;-44
2024/02/27 03:52:11;;;;;;;6.67;5.63;;;7.80;99.90;;;;;;5137616;27;20495;-44
2024/02/27 03:54:37;;;;;;;6.40;5.77;;;7.80;38.80;;;;;;5136294;27;20257;-47
2024/02/27 03:57:02;;;;;;;6.43;5.37;;;7.80;15.70;;;;;;5119712;27;20766;-45
2024/02/27 03:59:29;;;;;;;6.63;5.70;;;7.80;1.00;;;;;;5139876;27;20182;-46
2024/02/27 04:01:55;;;;;;;6.83;6.13;;;7.70;1.00;;;;;;5138457;27;20194;-44
2024/02/27 04:04:20;;;;;;;7.83;6.40;;;7.70;1.00;;;;;;5138337;27;20428;-46
2024/02/27 04:06:46;;;;;;;9.03;6.53;;;7.60;1.00;;;;;;5138206;27;20205;-44
2024/02/27 04:09:11;;;;;;;6.67;5.70;;;7.60;1.00;;;;;;5120074;27;20185;-45
2024/02/27 04:11:37;;;;;;;7.17;6.40;;;7.60;1.00;;;;;;5135547;27;20167;-46
2024/02/27 04:14:03;;;;;;;7.87;7.07;;;7.60;1.00;;;;;;5138082;27;20279;-46
2024/02/27 04:16:28;;;;;;;7.50;6.10;;;7.50;1.00;;;;;;5138163;27;20261;-47
2024/02/27 04:18:54;;;;;;;7.63;6.70;;;7.50;1.00;;;;;;5137694;27;20459;-46
2024/02/27 04:21:19;;;;;;;8.57;7.10;;;7.50;1.00;;;;;;5136197;27;20190;-46
2024/02/27 04:23:45;;;;;;;8.57;7.27;;;7.50;1.00;;;;;;5137349;27;20593;-47
2024/02/27 04:26:11;;;;;;;8.50;6.83;;;7.50;1.00;;;;;;5138420;27;20190;-46
2024/02/27 04:28:36;;;;;;;8.40;7.43;;;7.40;1.00;;;;;;5137895;27;20231;-44
2024/02/27 04:31:02;;;;;;;7.80;7.00;;;7.40;1.00;;;;;;5138418;27;20633;-46
2024/02/27 04:33:27;;;;;;;9.50;7.00;;;7.40;1.00;;;;;;5139464;27;20198;-47
2024/02/27 04:35:53;;;;;;;7.13;6.40;;;7.40;1.00;;;;;;5120930;27;20200;-48
2024/02/27 04:38:20;;;;;;;9.00;7.90;;;7.40;1.00;;;;;;5139997;27;20179;-46
2024/02/27 04:40:46;;;;;;;9.17;7.30;;;7.40;1.00;;;;;;5128980;27;20267;-44
2024/02/27 04:43:12;;;;;;;11.20;8.50;;;7.40;99.90;;;;;;5137417;27;20746;-46
2024/02/27 04:45:37;;;;;;;9.87;8.87;;;7.40;99.90;;;;;;5137116;27;20495;-45
2024/02/27 04:48:05;;;;;;;8.50;7.60;;;7.40;99.90;;;;;;5136735;27;20424;-45
2024/02/27 04:50:31;;;;;;;12.07;11.03;;;7.40;99.90;;;;;;5137326;27;20343;-45
2024/02/27 04:52:57;;;;;;;11.37;9.03;;;7.50;99.90;;;;;;5137162;27;20468;-45
2024/02/27 04:55:22;;;;;;;11.17;9.20;;;7.50;99.90;;;;;;5136791;27;20533;-47
2024/02/27 04:57:48;;;;;;;12.43;11.27;;;7.50;99.90;;;;;;5134780;27;20425;-48
2024/02/27 05:00:14;;;;;;;10.50;9.23;;;7.40;99.90;;;;;;5135666;27;20171;-45
2024/02/27 05:02:40;;;;;;;9.33;7.73;;;7.40;99.90;;;;;;5137529;27;20195;-46
2024/02/27 05:05:06;;;;;;;10.63;8.43;;;7.40;99.90;;;;;;5136293;27;20421;-46
2024/02/27 05:07:31;;;;;;;11.10;8.93;;;7.40;99.90;;;;;;5135154;27;20187;-47
2024/02/27 05:09:57;;;;;;;9.17;8.27;;;7.40;99.90;;;;;;5136141;27;20516;-45
2024/02/27 05:12:23;;;;;;;11.53;9.13;;;7.40;99.90;;;;;;5137815;27;20448;-45
2024/02/27 05:14:50;;;;;;;11.23;9.30;;;7.40;99.90;;;;;;5119432;27;20235;-44
2024/02/27 05:17:16;;;;;;;10.13;8.73;;;7.30;1.00;;;;;;5137133;27;20417;-43
2024/02/27 05:19:41;;;;;;;14.93;9.23;;;7.30;1.00;;;;;;5118571;27;20458;-44
2024/02/27 05:22:07;;;;;;;10.50;9.40;;;7.30;1.00;;;;;;5117111;27;20183;-46
2024/02/27 05:24:33;;;;;;;9.73;8.67;;;7.30;1.00;;;;;;5135961;27;20179;-46
2024/02/27 05:26:59;;;;;;;10.67;8.70;;;7.30;1.00;;;;;;5136432;27;20222;-45
2024/02/27 05:29:25;;;;;;;12.50;9.83;;;7.30;1.00;;;;;;5135130;27;20179;-44
2024/02/27 05:31:51;;;;;;;11.00;9.33;;;7.30;1.00;;;;;;5132866;27;20432;-45
2024/02/27 05:34:17;;;;;;;11.77;9.73;;;7.20;1.00;;;;;;5133463;27;20752;-44
2024/02/27 05:36:42;;;;;;;12.80;9.23;;;7.20;1.00;;;;;;5134131;27;20178;-46
2024/02/27 05:39:08;;;;;;;11.70;9.70;;;7.20;1.00;;;;;;5132913;27;20211;-47
2024/02/27 05:41:34;;;;;;;12.43;10.53;;;7.20;1.00;;;;;;5117111;27;20427;-49
2024/02/27 05:43:59;;;;;;;14.13;11.20;;;7.20;1.00;;;;;;5132504;27;20743;-46
2024/02/27 05:46:26;;;;;;;10.80;9.40;;;7.20;1.00;;;;;;5131200;27;20518;-45
2024/02/27 05:48:51;;;;;;;14.10;11.67;;;7.10;1.00;;;;;;5130359;27;20210;-43
2024/02/27 05:51:19;;;;;;;14.47;11.10;;;7.10;1.00;;;;;;5131175;27;20726;-47
2024/02/27 05:53:45;;;;;;;12.17;10.67;;;7.10;1.00;;;;;;5134122;27;20222;-45
2024/02/27 05:56:11;;;;;;;13.57;11.23;;;7.10;1.00;;;;;;5133558;27;20429;-45
2024/02/27 05:58:37;;;;;;;18.20;11.00;;;7.10;1.00;;;;;;5133717;27;20191;-46
2024/02/27 06:01:03;;;;;;;14.43;11.07;;;7.00;1.00;;;;;;5132727;27;20461;-44
2024/02/27 06:03:29;;;;;;;4.80;2.73;;;7.00;1.00;;;;;;5131841;27;20417;-45
2024/02/27 06:05:55;;;;;;;9.07;5.60;;;8.50;1.00;;;;;;5131767;27;20179;-46
2024/02/27 06:08:25;;;;;;;9.10;7.40;;;9.70;1.00;;;;;;5131332;27;20198;-47
2024/02/27 06:10:50;;;;;;;23.77;13.43;;;10.80;1.00;;;;;;5130506;27;20175;-45
2024/02/27 06:13:16;;;;;;;14.03;12.57;;;11.80;1.00;;;;;;5130551;27;20471;-46
2024/02/27 06:15:44;;;;;;;21.20;14.63;;;11.90;1.00;;;;;;5131250;27;20280;-45
2024/02/27 06:18:15;;;;;;;21.57;14.60;;;11.50;99.90;;;;;;5135063;27;20258;-45
2024/02/27 06:23:27;;;;;;;26.30;18.53;;;10.80;1.00;;;;;;5132203;27;20447;-46
2024/02/27 06:25:53;;;;;;;16.37;13.67;;;10.50;1.00;;;;;;5134423;27;20706;-43
2024/02/27 06:28:19;;;;;;;16.80;12.40;;;10.20;99.90;;;;;;5125070;27;20433;-45
2024/02/27 06:30:45;;;;;;;21.97;16.33;;;10.00;99.90;;;;;;5134518;27;20444;-43
2024/02/27 06:33:10;;;;;;;23.63;17.13;;;9.90;99.90;;;;;;5134397;27;20194;-43
2024/02/27 06:35:37;;;;;;;17.00;14.63;;;9.60;99.90;;;;;;5133941;27;20546;-45
2024/02/27 06:38:04;;;;;;;21.30;16.47;;;9.20;1.00;;;;;;5134001;27;20179;-47
2024/02/27 06:40:30;;;;;;;18.17;14.67;;;9.00;99.90;;;;;;5117682;27;20425;-44
2024/02/27 06:42:55;;;;;;;14.10;12.47;;;8.70;99.90;;;;;;5133687;27;20778;-46
2024/02/27 06:45:21;;;;;;;17.90;14.20;;;8.40;1.00;;;;;;5133905;27;20514;-44
2024/02/27 06:47:47;;;;;;;17.50;14.40;;;8.30;1.00;;;;;;5133518;27;20277;-45
2024/02/27 06:50:14;;;;;;;15.87;14.10;;;8.10;99.90;;;;;;5115460;27;20535;-44
2024/02/27 06:52:39;;;;;;;16.13;13.17;;;7.90;99.90;;;;;;5132799;27;20468;-49
2024/02/27 06:55:05;;;;;;;17.53;13.53;;;7.70;1.00;;;;;;5135026;27;20443;-48
2024/02/27 06:57:32;;;;;;;15.30;12.60;;;7.70;1.00;;;;;;5133252;27;20167;-44
2024/02/27 06:59:58;;;;;;;16.70;13.17;;;7.60;1.00;;;;;;5133152;27;20519;-45
2024/02/27 07:02:24;;;;;;;19.97;17.73;;;7.50;1.00;;;;;;5131745;27;20607;-46
2024/02/27 07:04:49;;;;;;;18.33;14.90;;;7.50;1.00;;;;;;5134709;27;20703;-48
2024/02/27 07:07:15;;;;;;;14.90;13.03;;;7.40;1.00;;;;;;5114770;27;20450;-46
2024/02/27 07:09:41;;;;;;;18.90;14.60;;;7.40;1.00;;;;;;5114390;27;20182;-45
2024/02/27 07:12:07;;;;;;;19.77;15.97;;;7.40;1.00;;;;;;5132634;27;20547;-45
2024/02/27 07:14:33;;;;;;;19.60;14.57;;;7.40;1.00;;;;;;5132999;27;20266;-46
2024/02/27 07:16:59;;;;;;;16.87;14.60;;;7.40;1.00;;;;;;5134181;28;20428;-45
2024/02/27 07:19:25;;;;;;;18.30;14.97;;;7.50;1.00;;;;;;5133433;28;20424;-46
2024/02/27 07:21:51;;;;;;;19.70;14.47;;;7.50;1.00;;;;;;5133625;28;20428;-44
2024/02/27 07:24:17;;;;;;;17.10;14.97;;;7.50;1.00;;;;;;5134981;28;20695;-45
2024/02/27 07:26:43;;;;;;;16.80;15.00;;;7.50;1.00;;;;;;5131416;28;20803;-45
2024/02/27 07:29:11;;;;;;;17.10;14.23;;;7.60;1.00;;;;;;5133022;28;20432;-44
2024/02/27 07:31:36;;;;;;;18.07;14.73;;;7.70;1.00;;;;;;5135003;28;20595;-47
2024/02/27 07:34:03;;;;;;;18.37;14.63;;;7.80;99.90;;;;;;5133402;28;20468;-46
2024/02/27 07:36:29;;;;;;;18.30;14.50;;;7.80;99.90;;;;;;5132957;28;20173;-44
2024/02/27 07:38:54;;;;;;;20.20;16.23;;;7.80;99.90;;;;;;5130377;28;20790;-45
2024/02/27 07:41:20;;;;;;;20.27;16.20;;;7.80;99.90;;;;;;5134771;28;20179;-45
2024/02/27 07:43:47;;;;;;;19.20;15.80;;;7.80;99.90;;;;;;5135199;28;20516;-46
2024/02/27 07:46:14;;;;;;;18.40;15.33;;;7.90;99.90;;;;;;5136186;28;20272;-45
2024/02/27 07:48:43;;;;;;;18.90;15.83;;;8.00;99.90;;;;;;5135476;28;20432;-45
2024/02/27 07:51:25;;;;;;;20.23;16.37;;;8.10;99.90;;;;;;5135586;28;20417;-43
2024/02/27 07:53:50;;;;;;;21.80;17.00;;;8.20;99.90;;;;;;5135469;28;20464;-44
2024/02/27 07:56:16;;;;;;;19.47;16.33;;;8.20;1.00;;;;;;5134437;28;20421;-49
2024/02/27 07:58:42;;;;;;;21.23;18.10;;;8.30;1.00;;;;;;5133156;28;20798;-44
2024/02/27 08:01:07;;;;;;;18.30;16.40;;;8.50;1.00;;;;;;5133125;28;20534;-48
2024/02/27 08:03:33;;;;;;;19.60;17.30;;;8.70;59.60;;;;;;5133929;28;20179;-46
2024/02/27 08:05:58;;;;;;;17.03;14.57;;;8.70;8.20;;;;;;5131757;28;20265;-45
2024/02/27 08:08:24;;;;;;;17.20;15.40;;;9.00;1.00;;;;;;5132193;28;20194;-43
2024/02/27 08:10:50;;;;;;;17.83;15.80;;;9.20;99.90;;;;;;5132898;28;20382;-44
2024/02/27 08:13:17;;;;;;;18.50;16.60;;;9.30;99.90;;;;;;5132827;28;20350;-47
2024/02/27 08:15:44;;;;;;;22.27;16.73;;;9.40;1.00;;;;;;5134516;28;20234;-47
2024/02/27 08:18:11;;;;;;;18.57;16.57;;;9.30;1.00;;;;;;5133942;28;20465;-45
2024/02/27 08:20:36;;;;;;;21.70;15.80;;;9.30;99.90;;;;;;5133408;28;20436;-45
2024/02/27 08:23:02;;;;;;;19.63;17.17;;;9.20;1.00;;;;;;5132219;27;20760;-45
2024/02/27 08:25:28;;;;;;;23.00;18.17;;;9.20;87.00;;;;;;5136945;27;20251;-44
2024/02/27 08:27:54;;;;;;;18.57;15.93;;;9.10;1.00;;;;;;5135097;27;20240;-47
2024/02/27 08:30:20;;;;;;;21.40;15.87;;;9.10;99.90;;;;;;5137512;27;20420;-43
2024/02/27 08:32:45;;;;;;;20.87;16.10;;;9.30;1.00;;;;;;5118393;27;20456;-44
2024/02/27 08:35:11;;;;;;;19.10;16.17;;;9.50;99.90;;;;;;5136764;27;20280;-46
2024/02/27 08:37:36;;;;;;;22.33;15.73;;;9.80;1.00;;;;;;5137613;27;20395;-45
2024/02/27 08:40:02;;;;;;;18.60;14.90;;;10.20;1.00;;;;;;5135820;27;20191;-47
2024/02/27 08:42:28;;;;;;;19.30;16.60;;;10.40;92.30;;;;;;5134896;27;20186;-44
2024/02/27 08:44:54;;;;;;;19.17;16.57;;;10.50;1.00;;;;;;5135645;27;20846;-46
2024/02/27 08:47:20;;;;;;;15.97;14.27;;;10.60;1.00;;;;;;5137256;27;20464;-45
2024/02/27 08:49:45;;;;;;;20.07;16.83;;;10.60;99.90;;;;;;5135354;27;20378;-45
2024/02/27 08:52:11;;;;;;;18.80;16.60;;;10.60;99.90;;;;;;5134136;27;20873;-44
2024/02/27 08:54:36;;;;;;;19.90;16.00;;;10.40;99.90;;;;;;5134815;27;20199;-47
2024/02/27 08:57:03;;;;;;;18.70;16.63;;;10.40;99.90;;;;;;5135293;27;20163;-44
2024/02/27 08:59:29;;;;;;;19.37;16.03;;;10.40;99.90;;;;;;5135502;27;20247;-45
2024/02/27 09:01:55;;;;;;;16.50;14.67;;;10.70;1.00;;;;;;5116204;27;20531;-45
2024/02/27 09:04:21;;;;;;;18.53;16.50;;;10.90;99.90;;;;;;5135042;27;20179;-45
2024/02/27 09:06:46;;;;;;;18.07;16.17;;;11.00;99.90;;;;;;5135312;27;20179;-47
2024/02/27 09:09:12;;;;;;;19.37;16.47;;;11.10;72.30;;;;;;5135581;27;20311;-44
2024/02/27 09:11:37;;;;;;;17.20;15.03;;;11.10;47.30;;;;;;5136982;27;20175;-48
2024/02/27 09:14:04;;;;;;;17.20;15.40;;;11.10;1.00;;;;;;5137291;27;20585;-43
2024/02/27 09:16:30;;;;;;;19.30;16.77;;;11.10;1.00;;;;;;5137639;27;20177;-46
2024/02/27 09:18:56;;;;;;;17.83;15.73;;;11.30;1.00;;;;;;5137132;27;20730;-45
2024/02/27 09:21:22;;;;;;;17.40;15.60;;;11.40;1.00;;;;;;5119026;27;20409;-45
2024/02/27 09:23:47;;;;;;;17.63;15.83;;;11.50;1.00;;;;;;5136964;27;20185;-45
2024/02/27 09:26:13;;;;;;;17.23;15.03;;;11.60;1.00;;;;;;5136966;27;20834;-45
2024/02/27 09:28:39;;;;;;;18.43;16.30;;;11.50;1.00;;;;;;5136706;27;20564;-45
2024/02/27 09:31:05;;;;;;;19.90;16.53;;;11.30;1.00;;;;;;5134952;27;20186;-46
2024/02/27 09:33:31;;;;;;;17.90;15.90;;;11.00;1.00;;;;;;5137685;27;20464;-46
2024/02/27 09:35:57;;;;;;;17.43;15.57;;;10.70;89.80;;;;;;5138106;27;20171;-45
2024/02/27 09:38:23;;;;;;;18.30;16.17;;;10.60;99.90;;;;;;5136707;27;20497;-46
2024/02/27 09:40:53;;;;;;;22.10;17.40;;;10.40;1.00;;;;;;5118946;27;20179;-47
2024/02/27 09:43:22;;;;;;;20.83;17.20;;;10.40;1.00;;;;;;5137338;27;20189;-45
2024/02/27 09:45:48;;;;;;;18.93;16.43;;;10.30;26.70;;;;;;5135258;27;20437;-46
2024/02/27 09:48:18;;;;;;;17.60;15.50;;;10.30;99.90;;;;;;5134933;27;20889;-45
2024/02/27 09:50:46;;;;;;;20.53;17.40;;;10.20;1.00;;;;;;5134448;27;20520;-44
2024/02/27 09:53:12;;;;;;;19.47;16.77;;;10.30;1.00;;;;;;5134292;27;20476;-45
2024/02/27 09:55:38;;;;;;;18.50;16.37;;;10.20;99.90;;;;;;5134960;27;20463;-45
2024/02/27 09:58:04;;;;;;;18.63;16.50;;;10.40;1.00;;;;;;5116161;27;20542;-46
2024/02/27 10:00:29;;;;;;;17.17;15.37;;;10.40;1.00;;;;;;5116174;27;20226;-47
2024/02/27 10:02:55;;;;;;;20.93;17.33;;;10.50;99.90;;;;;;5134701;27;20182;-48
2024/02/27 10:05:22;;;;;;;17.53;15.33;;;10.40;99.90;;;;;;5117316;27;20425;-45
2024/02/27 10:07:48;;;;;;;18.50;16.30;;;10.50;99.90;;;;;;5134652;27;20552;-43
2024/02/27 10:10:16;;;;;;;18.27;16.27;;;10.60;99.90;;;;;;5133379;27;20756;-44
2024/02/27 10:12:41;;;;;;;18.73;15.70;;;10.70;99.90;;;;;;5113768;27;20884;-45
2024/02/27 10:15:07;;;;;;;19.83;15.70;;;10.70;99.90;;;;;;5129688;27;20558;-45
2024/02/27 10:17:35;;;;;;;19.40;16.30;;;10.60;1.00;;;;;;5118173;27;20183;-44
2024/02/27 10:20:10;;;;;;;18.27;15.60;;;10.60;1.00;;;;;;5116522;27;20463;-45
2024/02/27 10:22:37;;;;;;;18.20;14.60;;;10.50;1.00;;;;;;5117611;27;20833;-45
2024/02/27 10:25:05;;;;;;;16.07;13.77;;;10.40;48.40;;;;;;5134243;27;20655;-44
2024/02/27 10:27:32;;;;;;;16.97;14.47;;;10.50;1.00;;;;;;5135112;27;20501;-45
2024/02/27 10:29:57;;;;;;;14.73;12.40;;;10.70;1.00;;;;;;5116336;27;20507;-43
2024/02/27 10:32:23;;;;;;;14.10;12.20;;;11.00;1.00;;;;;;5132968;27;20607;-44
2024/02/27 10:34:53;;;;;;;14.43;12.50;;;11.30;1.00;;;;;;5133632;27;20171;-48
2024/02/27 10:37:20;;;;;;;16.90;15.07;;;11.70;99.90;;;;;;5134695;27;20506;-45
2024/02/27 10:39:47;;;;;;;17.27;15.47;;;12.00;1.00;;;;;;5135685;27;20440;-44
2024/02/27 10:42:12;;;;;;;17.03;15.10;;;12.00;25.60;;;;;;5135460;27;20427;-48
2024/02/27 10:44:38;;;;;;;19.47;15.70;;;11.90;1.00;;;;;;5115704;27;20717;-44
2024/02/27 10:47:05;;;;;;;15.37;13.77;;;11.70;1.00;;;;;;5132353;27;20183;-44
2024/02/27 10:49:30;;;;;;;16.80;15.00;;;11.50;4.10;;;;;;5134600;27;20329;-47
2024/02/27 10:51:57;;;;;;;17.37;15.53;;;11.50;10.40;;;;;;5136146;27;20447;-44
2024/02/27 10:54:23;;;;;;;18.80;14.77;;;11.40;82.70;;;;;;5117053;27;20208;-45
2024/02/27 10:56:49;;;;;;;15.27;13.73;;;11.50;97.80;;;;;;5135608;27;20424;-44
2024/02/27 10:59:15;;;;;;;17.67;15.67;;;11.70;99.90;;;;;;5135923;27;20615;-46
2024/02/27 11:01:41;;;;;;;17.07;15.00;;;11.80;7.40;;;;;;5116601;27;20429;-45
2024/02/27 11:04:14;;;;;;;19.07;16.80;;;11.80;25.30;;;;;;5136020;27;20428;-44
2024/02/27 11:06:40;;;;;;;17.60;15.73;;;11.80;1.00;;;;;;5098493;27;20495;-43
2024/02/27 11:09:10;;;;;;;16.30;14.60;;;11.90;1.00;;;;;;5131336;27;20416;-45
2024/02/27 11:11:41;;;;;;;19.20;15.17;;;12.00;1.00;;;;;;5113364;28;20421;-45
2024/02/27 11:14:08;;;;;;;19.57;16.33;;;12.20;1.00;;;;;;5117740;28;20641;-44
2024/02/27 11:16:37;;;;;;;20.07;17.30;;;12.30;1.00;;;;;;5134290;27;20489;-45
2024/02/27 11:19:12;;;;;;;19.73;17.50;;;12.50;1.00;;;;;;5099433;28;20447;-45
2024/02/27 11:21:39;;;;;;;19.50;16.83;;;12.50;1.00;;;;;;5113801;28;20443;-43
2024/02/27 11:24:05;;;;;;;18.90;16.80;;;12.50;1.00;;;;;;5098283;28;20421;-44
2024/02/27 11:26:31;;;;;;;17.23;15.27;;;12.70;1.00;;;;;;5131096;28;20988;-44
2024/02/27 11:28:58;;;;;;;18.53;16.63;;;13.10;1.00;;;;;;5114777;28;20443;-48
2024/02/27 11:31:24;;;;;;;19.10;16.77;;;13.50;1.00;;;;;;5114767;28;20428;-46
2024/02/27 11:33:53;;;;;;;19.70;17.60;;;14.20;99.90;;;;;;5113631;28;20687;-46
2024/02/27 11:36:20;;;;;;;18.57;16.67;;;14.60;99.90;;;;;;5112954;28;20890;-46
2024/02/27 11:38:46;;;;;;;21.73;17.50;;;15.00;99.90;;;;;;5131090;28;20576;-43
2024/02/27 11:41:20;;;;;;;20.23;17.90;;;15.40;99.90;;;;;;5131786;28;20520;-45
2024/02/27 11:43:49;;;;;;;19.87;17.73;;;15.80;99.90;;;;;;5129772;28;20427;-44
2024/02/27 11:46:27;;;;;;;19.70;17.83;;;16.30;99.90;;;;;;5129752;28;20548;-44
2024/02/27 11:48:53;;;;;;;21.87;19.33;;;16.40;70.00;;;;;;5132408;28;20428;-46
2024/02/27 11:51:20;;;;;;;22.03;19.73;;;16.20;54.80;;;;;;5115136;28;20917;-47
2024/02/27 11:53:45;;;;;;;23.37;21.03;;;15.90;49.20;;;;;;5097356;28;20472;-47
2024/02/27 11:56:12;;;;;;;23.13;20.40;;;15.30;82.80;;;;;;5130636;28;20442;-48
2024/02/27 11:58:38;;;;;;;22.63;20.23;;;;;;;;;;5134054;27;20327;-44
2024/02/27 12:01:05;;;;;;;22.90;20.30;;;14.00;99.90;;;;;;5136462;27;20440;-48
2024/02/27 12:03:31;;;;;;;19.63;17.73;;;13.60;99.90;;;;;;5121853;27;20409;-46
2024/02/27 12:06:03;;;;;;;21.03;18.83;;;13.20;99.90;;;;;;5120201;27;20714;-44
2024/02/27 12:08:30;;;;;;;23.47;18.90;;;12.80;99.90;;;;;;5137358;27;20183;-44
2024/02/27 12:10:56;;;;;;;24.33;20.03;;;12.60;99.90;;;;;;5120218;27;20493;-48
2024/02/27 12:13:21;;;;;;;20.33;18.23;;;12.60;99.90;;;;;;5120573;27;20515;-43
2024/02/27 12:16:00;;;;;;;22.00;19.43;;;12.60;1.00;;;;;;5137236;27;20480;-44
2024/02/27 12:18:26;;;;;;;24.03;21.23;;;12.50;1.00;;;;;;5137548;27;20368;-45
2024/02/27 12:20:52;;;;;;;25.73;22.37;;;12.40;1.00;;;;;;5137717;27;20502;-45
2024/02/27 12:23:18;;;;;;;24.20;21.30;;;12.20;1.00;;;;;;5101350;27;20441;-45
2024/02/27 12:25:45;;;;;;;24.40;21.80;;;12.00;1.00;;;;;;5117308;27;20809;-46
2024/02/27 12:28:11;;;;;;;26.47;23.33;;;11.70;1.00;;;;;;5137076;27;20424;-45
2024/02/27 12:30:37;;;;;;;24.97;21.90;;;11.60;99.90;;;;;;5118692;27;20408;-44
2024/02/27 12:33:06;;;;;;;23.10;20.63;;;11.40;99.90;;;;;;5099427;27;20464;-45
2024/02/27 12:35:32;;;;;;;22.97;20.57;;;11.40;1.00;;;;;;5099537;27;20557;-47
2024/02/27 12:37:58;;;;;;;24.10;21.33;;;11.20;1.00;;;;;;5136543;27;20466;-50
2024/02/27 12:40:24;;;;;;;25.47;22.70;;;11.20;1.00;;;;;;5138327;27;20706;-46
2024/02/27 12:42:52;;;;;;;29.93;20.60;;;11.10;1.00;;;;;;5116423;27;20501;-46
2024/02/27 12:45:18;;;;;;;25.53;21.57;;;11.20;99.90;;;;;;5132454;27;20845;-49
2024/02/27 12:47:47;;;;;;;24.57;21.00;;;11.30;1.00;;;;;;5132031;27;20425;-48
2024/02/27 12:50:16;;;;;;;27.03;22.27;;;11.30;1.00;;;;;;5099010;27;20937;-45